createdAt,value
2022-11-17T00:02:47.223Z,10.63
2022-11-17T00:05:36.068Z,10.72
2022-11-17T00:08:23.718Z,10.82
2022-11-17T00:11:11.489Z,10.77
2022-11-17T00:14:17.343Z,10.76
2022-11-17T00:17:07.854Z,10.82
2022-11-17T00:20:13.856Z,10.74
2022-11-17T00:23:01.520Z,10.73
2022-11-17T00:25:51.936Z,10.61
2022-11-17T00:28:39.635Z,10.51
2022-11-17T00:31:48.376Z,10.40
2022-11-17T00:34:36.113Z,10.34
2022-11-17T00:37:24.140Z,10.42
2022-11-17T00:40:12.435Z,10.48
2022-11-17T00:43:00.025Z,10.49
2022-11-17T00:45:47.756Z,10.47
2022-11-17T00:48:35.411Z,10.44
2022-11-17T00:51:23.147Z,10.52
2022-11-17T00:54:15.107Z,10.45
2022-11-17T00:57:03.119Z,10.61
2022-11-17T00:59:50.820Z,10.57
2022-11-17T01:02:38.504Z,10.58
2022-11-17T01:05:30.340Z,10.64
2022-11-17T01:08:23.563Z,10.70
2022-11-17T01:11:20.575Z,10.75
2022-11-17T01:14:12.183Z,10.60
2022-11-17T01:16:59.742Z,10.63
2022-11-17T01:19:49.470Z,10.72
2022-11-17T01:22:37.415Z,10.68
2022-11-17T01:25:25.104Z,10.72
2022-11-17T01:28:12.750Z,10.71
2022-11-17T01:31:02.896Z,10.53
2022-11-17T01:33:56.850Z,10.72
2022-11-17T01:37:03.313Z,10.73
2022-11-17T01:39:51.473Z,10.63
2022-11-17T01:42:39.118Z,10.82
2022-11-17T01:45:27.193Z,10.85
2022-11-17T01:48:15.575Z,10.85
2022-11-17T01:51:04.769Z,10.77
2022-11-17T01:53:52.672Z,10.81
2022-11-17T01:56:44.612Z,10.77
2022-11-17T01:59:40.192Z,10.56
2022-11-17T02:02:28.981Z,10.68
2022-11-17T02:05:25.009Z,10.56
2022-11-17T02:08:13.553Z,10.68
2022-11-17T02:11:04.238Z,10.68
2022-11-17T02:13:55.607Z,10.69
2022-11-17T02:16:43.217Z,10.64
2022-11-17T02:19:37.422Z,10.70
2022-11-17T02:22:42.612Z,10.59
2022-11-17T02:25:35.805Z,10.66
2022-11-17T02:28:37.958Z,10.60
2022-11-17T02:31:40.305Z,10.62
2022-11-17T02:34:42.561Z,10.61
2022-11-17T02:37:48.278Z,10.56
2022-11-17T02:40:42.838Z,10.55
2022-11-17T02:44:04.176Z,10.52
2022-11-17T02:46:58.752Z,10.50
2022-11-17T02:49:59.290Z,10.48
2022-11-17T02:52:46.859Z,10.43
2022-11-17T02:55:38.476Z,10.48
2022-11-17T02:58:26.166Z,10.42
2022-11-17T03:01:22.959Z,10.49
2022-11-17T03:04:29.799Z,10.48
2022-11-17T03:07:35.710Z,10.43
2022-11-17T03:10:39.366Z,10.35
2022-11-17T03:13:45.295Z,9.92
2022-11-17T03:16:41.410Z,10.31
2022-11-17T03:19:48.683Z,10.32
2022-11-17T03:23:05.437Z,10.34
2022-11-17T03:26:08.341Z,10.31
2022-11-17T03:28:58.491Z,10.34
2022-11-17T03:31:49.470Z,10.26
2022-11-17T03:34:42.664Z,10.33
2022-11-17T03:37:35.567Z,10.37
2022-11-17T03:40:27.321Z,10.34
2022-11-17T03:43:18.969Z,10.34
2022-11-17T03:46:12.282Z,10.35
2022-11-17T03:49:26.128Z,10.37
2022-11-17T03:52:13.981Z,10.41
2022-11-17T03:55:02.604Z,10.39
2022-11-17T03:58:03.886Z,10.36
2022-11-17T04:01:03.736Z,10.44
2022-11-17T04:04:21.253Z,10.45
2022-11-17T04:07:11.346Z,10.46
2022-11-17T04:09:59.144Z,10.57
2022-11-17T04:13:26.714Z,10.54
2022-11-17T04:16:17.139Z,10.40
2022-11-17T04:19:07.167Z,10.55
2022-11-17T04:21:54.787Z,10.55
2022-11-17T04:24:42.519Z,10.28
2022-11-17T04:27:48.512Z,10.56
2022-11-17T04:30:36.228Z,10.56
2022-11-17T04:33:23.912Z,10.47
2022-11-17T04:36:13.808Z,10.66
2022-11-17T04:39:02.017Z,10.63
2022-11-17T04:41:57.536Z,10.68
2022-11-17T04:44:46.385Z,10.61
2022-11-17T04:47:35.089Z,10.52
2022-11-17T04:50:23.897Z,10.52
2022-11-17T04:53:11.568Z,10.63
2022-11-17T04:56:01.388Z,10.57
2022-11-17T04:58:49.893Z,10.59
2022-11-17T05:01:40.213Z,10.57
2022-11-17T05:04:46.260Z,10.63
2022-11-17T05:07:37.105Z,10.56
2022-11-17T05:10:44.457Z,10.61
2022-11-17T05:13:32.889Z,10.42
2022-11-17T05:16:43.936Z,10.53
2022-11-17T05:19:37.705Z,10.51
2022-11-17T05:22:43.777Z,10.52
2022-11-17T05:25:31.469Z,10.49
2022-11-17T05:28:19.086Z,10.22
2022-11-17T05:31:06.978Z,10.50
2022-11-17T05:33:55.395Z,10.48
2022-11-17T05:36:46.930Z,10.49
2022-11-17T05:39:35.951Z,10.47
2022-11-17T05:42:23.708Z,10.48
2022-11-17T05:45:11.522Z,10.46
2022-11-17T05:47:59.193Z,10.52
2022-11-17T05:50:46.995Z,10.47
2022-11-17T05:53:34.977Z,10.49
2022-11-17T05:56:36.726Z,10.47
2022-11-17T05:59:29.313Z,10.49
2022-11-17T06:02:25.507Z,10.51
2022-11-17T06:05:18.732Z,10.54
2022-11-17T06:08:07.940Z,10.66
2022-11-17T06:10:56.453Z,10.67
2022-11-17T06:13:44.122Z,10.68
2022-11-17T06:16:34.655Z,10.70
2022-11-17T06:19:27.164Z,10.61
2022-11-17T06:22:14.893Z,10.75
2022-11-17T06:25:04.305Z,10.83
2022-11-17T06:27:52.962Z,10.74
2022-11-17T06:30:41.476Z,10.79
2022-11-17T06:33:31.445Z,10.87
2022-11-17T06:36:19.223Z,10.90
2022-11-17T06:39:06.857Z,10.96
2022-11-17T06:41:54.676Z,10.97
2022-11-17T06:44:42.460Z,10.91
2022-11-17T06:47:30.128Z,10.98
2022-11-17T06:50:17.845Z,10.96
2022-11-17T06:53:07.887Z,10.86
2022-11-17T06:56:04.534Z,11.03
2022-11-17T06:58:52.210Z,11.04
2022-11-17T07:01:39.857Z,11.03
2022-11-17T07:04:27.478Z,11.15
2022-11-17T07:07:15.360Z,11.20
2022-11-17T07:10:03.111Z,11.34
2022-11-17T07:12:50.811Z,11.46
2022-11-17T07:15:38.500Z,11.64
2022-11-17T07:18:26.196Z,11.85
2022-11-17T07:21:15.052Z,12.10
2022-11-17T07:24:03.539Z,12.13
2022-11-17T07:26:51.143Z,12.21
2022-11-17T07:29:38.815Z,11.35
2022-11-17T07:32:26.717Z,11.06
2022-11-17T07:35:14.480Z,10.74
2022-11-17T07:38:02.253Z,10.44
2022-11-17T07:40:49.936Z,10.34
2022-11-17T07:43:37.721Z,10.37
2022-11-17T07:46:25.853Z,10.24
2022-11-17T07:49:13.561Z,10.04
2022-11-17T07:52:01.362Z,10.15
2022-11-17T07:54:49.023Z,10.00
2022-11-17T07:57:36.907Z,10.06
2022-11-17T08:00:25.866Z,9.99
2022-11-17T08:03:13.711Z,9.94
2022-11-17T08:06:06.279Z,9.95
2022-11-17T08:08:54.629Z,10.04
2022-11-17T08:11:42.386Z,10.00
2022-11-17T08:14:30.137Z,10.03
2022-11-17T08:17:18.142Z,10.24
2022-11-17T08:20:06.214Z,10.33
2022-11-17T08:22:54.463Z,10.53
2022-11-17T08:25:42.284Z,10.54
2022-11-17T08:28:30.369Z,10.68
2022-11-17T08:31:18.108Z,10.83
2022-11-17T08:34:05.690Z,10.94
2022-11-17T08:36:53.536Z,11.14
2022-11-17T08:39:41.275Z,11.38
2022-11-17T08:42:29.839Z,11.64
2022-11-17T08:45:17.619Z,11.54
2022-11-17T08:48:07.761Z,11.69
2022-11-17T08:50:56.102Z,11.70
2022-11-17T08:53:44.118Z,11.76
2022-11-17T08:56:31.961Z,11.73
2022-11-17T08:59:19.698Z,11.81
2022-11-17T09:02:07.294Z,11.83
2022-11-17T09:04:54.992Z,11.98
2022-11-17T09:07:42.831Z,12.13
2022-11-17T09:10:30.545Z,12.13
2022-11-17T09:13:18.815Z,12.34
2022-11-17T09:16:09.867Z,12.68
2022-11-17T09:18:58.659Z,12.75
2022-11-17T09:21:46.273Z,12.96
2022-11-17T09:24:35.052Z,13.05
2022-11-17T09:27:22.789Z,13.13
2022-11-17T09:30:11.411Z,13.13
2022-11-17T09:32:59.088Z,13.10
2022-11-17T09:35:47.020Z,13.26
2022-11-17T09:38:36.807Z,13.33
2022-11-17T09:41:43.811Z,13.44
2022-11-17T09:44:54.763Z,13.68
2022-11-17T09:48:18.882Z,13.98
2022-11-17T09:51:15.093Z,14.61
2022-11-17T09:54:20.661Z,14.76
2022-11-17T09:57:21.850Z,14.66
2022-11-17T10:00:20.155Z,15.42
2022-11-17T10:03:22.955Z,15.75
2022-11-17T10:06:17.322Z,16.01
2022-11-17T10:09:25.892Z,16.29
2022-11-17T10:12:24.808Z,16.48
2022-11-17T10:15:23.759Z,16.80
2022-11-17T10:18:14.769Z,16.89
2022-11-17T10:21:03.291Z,17.13
2022-11-17T10:23:58.311Z,17.10
2022-11-17T10:26:50.036Z,17.09
2022-11-17T10:29:37.984Z,17.20
2022-11-17T10:32:27.184Z,17.57
2022-11-17T10:35:18.996Z,17.14
2022-11-17T10:38:16.540Z,17.37
2022-11-17T10:41:04.517Z,17.43
2022-11-17T10:44:02.105Z,17.72
2022-11-17T10:47:02.293Z,17.81
2022-11-17T10:50:08.225Z,18.01
2022-11-17T10:53:46.185Z,17.83
2022-11-17T10:56:41.937Z,16.95
2022-11-17T10:59:41.988Z,17.18
2022-11-17T11:02:34.935Z,17.63
2022-11-17T11:05:22.586Z,17.46
2022-11-17T11:08:19.997Z,17.76
2022-11-17T11:11:22.628Z,17.93
2022-11-17T11:14:18.927Z,17.97
2022-11-17T11:17:12.449Z,17.83
2022-11-17T11:20:00.176Z,17.61
2022-11-17T11:22:53.735Z,17.77
2022-11-17T11:25:52.493Z,17.59
2022-11-17T11:29:21.678Z,17.73
2022-11-17T11:32:09.194Z,18.02
2022-11-17T11:35:28.186Z,17.59
2022-11-17T11:38:43.513Z,17.22
2022-11-17T11:41:39.269Z,17.52
2022-11-17T11:44:32.999Z,17.83
2022-11-17T11:47:57.877Z,18.10
2022-11-17T11:51:04.504Z,18.03
2022-11-17T11:54:15.532Z,17.86
2022-11-17T11:57:03.776Z,17.80
2022-11-17T12:00:03.984Z,17.69
2022-11-17T12:03:13.673Z,17.86
2022-11-17T12:06:40.454Z,17.91
2022-11-17T12:10:00.353Z,17.68
2022-11-17T12:12:48.501Z,17.32
2022-11-17T12:15:37.197Z,17.39
2022-11-17T12:18:31.937Z,17.42
2022-11-17T12:21:25.263Z,17.22
2022-11-17T12:24:13.183Z,17.10
2022-11-17T12:27:36.350Z,17.07
2022-11-17T12:30:38.866Z,17.14
2022-11-17T12:33:54.321Z,17.03
2022-11-17T12:36:42.009Z,16.97
2022-11-17T12:39:57.497Z,16.98
2022-11-17T12:43:17.271Z,16.96
2022-11-17T12:46:19.572Z,16.92
2022-11-17T12:49:27.481Z,16.86
2022-11-17T12:52:49.595Z,16.76
2022-11-17T12:55:54.991Z,16.71
2022-11-17T12:58:48.618Z,16.69
2022-11-17T13:02:02.556Z,16.59
2022-11-17T13:05:04.116Z,16.42
2022-11-17T13:08:28.302Z,16.22
2022-11-17T13:11:17.777Z,16.07
2022-11-17T13:14:16.436Z,16.12
2022-11-17T13:17:11.560Z,16.08
2022-11-17T13:20:00.710Z,16.05
2022-11-17T13:23:26.093Z,15.94
2022-11-17T13:26:16.611Z,15.98
2022-11-17T13:29:12.878Z,15.68
2022-11-17T13:32:20.433Z,15.75
2022-11-17T13:35:24.804Z,15.45
2022-11-17T13:38:12.443Z,15.48
2022-11-17T13:41:01.399Z,15.25
2022-11-17T13:43:50.692Z,15.26
2022-11-17T13:46:39.102Z,15.16
2022-11-17T13:49:37.585Z,15.10
2022-11-17T13:52:40.442Z,15.01
2022-11-17T13:55:30.410Z,15.00
2022-11-17T13:58:30.103Z,14.96
2022-11-17T14:01:28.643Z,14.79
2022-11-17T14:04:24.166Z,14.74
2022-11-17T14:07:12.525Z,14.70
2022-11-17T14:10:30.870Z,14.69
2022-11-17T14:13:30.208Z,14.54
2022-11-17T14:16:25.139Z,14.51
2022-11-17T14:19:15.592Z,14.43
2022-11-17T14:22:27.660Z,14.39
2022-11-17T14:25:18.464Z,14.33
2022-11-17T14:28:23.127Z,14.08
2022-11-17T14:31:12.958Z,14.03
2022-11-17T14:34:00.724Z,13.88
2022-11-17T14:36:52.299Z,13.81
2022-11-17T14:39:39.983Z,13.64
2022-11-17T14:42:31.501Z,13.72
2022-11-17T14:45:22.365Z,13.50
2022-11-17T14:48:14.774Z,13.25
2022-11-17T14:51:06.564Z,13.32
2022-11-17T14:53:54.604Z,13.11
2022-11-17T14:56:42.343Z,13.05
2022-11-17T14:59:30.056Z,13.00
2022-11-17T15:02:17.795Z,12.54
2022-11-17T15:05:05.934Z,12.70
2022-11-17T15:07:55.570Z,12.58
2022-11-17T15:10:45.644Z,12.48
2022-11-17T15:13:33.434Z,12.40
2022-11-17T15:16:21.814Z,12.38
2022-11-17T15:19:09.460Z,12.31
2022-11-17T15:21:57.782Z,12.20
2022-11-17T15:24:45.914Z,12.18
2022-11-17T15:27:35.184Z,12.20
2022-11-17T15:30:23.517Z,12.18
2022-11-17T15:33:11.053Z,11.95
2022-11-17T15:36:03.177Z,11.97
2022-11-17T15:38:50.754Z,12.01
2022-11-17T15:41:38.470Z,12.05
2022-11-17T15:44:26.428Z,12.03
2022-11-17T15:47:14.108Z,11.92
2022-11-17T15:50:01.732Z,11.97
2022-11-17T15:53:03.407Z,11.90
2022-11-17T15:55:52.335Z,11.87
2022-11-17T15:58:41.753Z,11.82
2022-11-17T16:01:31.139Z,11.80
2022-11-17T16:04:19.040Z,11.81
2022-11-17T16:07:06.786Z,11.71
2022-11-17T16:09:57.321Z,11.72
2022-11-17T16:12:46.201Z,11.68
2022-11-17T16:15:35.870Z,11.58
2022-11-17T16:18:24.473Z,11.60
2022-11-17T16:21:13.830Z,11.68
2022-11-17T16:24:02.497Z,11.64
2022-11-17T16:26:53.260Z,11.70
2022-11-17T16:29:41.063Z,11.62
2022-11-17T16:32:28.682Z,11.64
2022-11-17T16:35:18.253Z,11.57
2022-11-17T16:38:17.796Z,11.75
2022-11-17T16:41:06.254Z,11.63
2022-11-17T16:43:56.116Z,11.49
2022-11-17T16:46:46.583Z,11.43
2022-11-17T16:49:37.384Z,11.50
2022-11-17T16:52:25.133Z,11.35
2022-11-17T16:55:12.781Z,11.45
2022-11-17T16:58:00.555Z,11.41
2022-11-17T17:00:48.342Z,11.31
2022-11-17T17:03:37.423Z,11.23
2022-11-17T17:06:25.877Z,11.34
2022-11-17T17:09:15.574Z,11.30
2022-11-17T17:12:04.684Z,11.25
2022-11-17T17:14:52.418Z,11.08
2022-11-17T17:17:40.149Z,11.01
2022-11-17T17:20:28.098Z,10.95
2022-11-17T17:23:15.733Z,10.96
2022-11-17T17:26:09.266Z,10.93
2022-11-17T17:28:59.431Z,10.95
2022-11-17T17:31:47.482Z,10.90
2022-11-17T17:34:35.085Z,10.71
2022-11-17T17:37:22.885Z,10.64
2022-11-17T17:40:11.070Z,10.76
2022-11-17T17:43:01.075Z,10.80
2022-11-17T17:45:48.827Z,10.68
2022-11-17T17:48:38.273Z,10.57
2022-11-17T17:51:28.034Z,10.66
2022-11-17T17:54:23.815Z,10.69
2022-11-17T17:57:11.841Z,10.71
2022-11-17T17:59:59.763Z,10.61
2022-11-17T18:02:47.681Z,10.56
2022-11-17T18:05:35.382Z,10.63
2022-11-17T18:08:23.281Z,10.53
2022-11-17T18:11:14.100Z,10.50
2022-11-17T18:14:04.980Z,10.43
2022-11-17T18:16:54.171Z,10.48
2022-11-17T18:19:41.845Z,10.19
2022-11-17T18:22:29.588Z,10.23
2022-11-17T18:25:18.020Z,10.24
2022-11-17T18:28:06.033Z,10.23
2022-11-17T18:30:53.787Z,10.17
2022-11-17T18:33:41.986Z,10.12
2022-11-17T18:36:31.350Z,10.13
2022-11-17T18:39:19.748Z,10.10
2022-11-17T18:42:09.800Z,10.05
2022-11-17T18:44:57.493Z,10.13
2022-11-17T18:47:45.494Z,10.12
2022-11-17T18:50:47.562Z,10.04
2022-11-17T18:53:42.851Z,9.87
2022-11-17T18:56:36.626Z,10.02
2022-11-17T18:59:24.377Z,9.95
2022-11-17T19:02:15.113Z,9.75
2022-11-17T19:05:06.405Z,9.77
2022-11-17T19:07:56.872Z,9.88
2022-11-17T19:10:54.678Z,9.81
2022-11-17T19:13:43.367Z,9.80
2022-11-17T19:16:32.242Z,9.81
2022-11-17T19:19:20.214Z,9.74
2022-11-17T19:22:08.113Z,9.77
2022-11-17T19:24:55.827Z,9.68
2022-11-17T19:27:43.569Z,9.66
2022-11-17T19:30:31.343Z,9.52
2022-11-17T19:33:19.027Z,9.50
2022-11-17T19:36:08.160Z,9.38
2022-11-17T19:38:57.714Z,9.28
2022-11-17T19:41:47.808Z,9.29
2022-11-17T19:44:35.617Z,9.20
2022-11-17T19:47:23.327Z,9.20
2022-11-17T19:50:11.458Z,9.21
2022-11-17T19:52:59.246Z,9.17
2022-11-17T19:55:47.026Z,9.01
2022-11-17T19:58:34.900Z,8.93
2022-11-17T20:01:27.953Z,8.85
2022-11-17T20:04:15.874Z,8.80
2022-11-17T20:07:07.162Z,8.65
2022-11-17T20:09:54.938Z,8.47
2022-11-17T20:12:43.644Z,8.60
2022-11-17T20:15:35.115Z,8.54
2022-11-17T20:18:23.104Z,8.46
2022-11-17T20:21:14.171Z,8.36
2022-11-17T20:24:02.373Z,8.19
2022-11-17T20:26:50.861Z,8.33
2022-11-17T20:29:38.501Z,8.26
2022-11-17T20:32:30.054Z,8.20
2022-11-17T20:35:18.199Z,8.19
2022-11-17T20:38:05.999Z,8.14
2022-11-17T20:40:58.100Z,8.19
2022-11-17T20:43:47.729Z,8.23
2022-11-17T20:46:36.823Z,8.18
2022-11-17T20:49:25.232Z,8.10
2022-11-17T20:52:13.625Z,8.02
2022-11-17T20:55:01.480Z,8.00
2022-11-17T20:57:49.129Z,7.86
2022-11-17T21:00:36.864Z,7.90
2022-11-17T21:03:27.240Z,7.79
2022-11-17T21:06:15.932Z,7.86
2022-11-17T21:09:03.881Z,7.78
2022-11-17T21:11:59.095Z,7.59
2022-11-17T21:14:46.707Z,7.70
2022-11-17T21:17:52.885Z,7.71
2022-11-17T21:20:40.667Z,7.74
2022-11-17T21:23:28.554Z,7.83
2022-11-17T21:26:19.634Z,7.86
2022-11-17T21:29:07.362Z,7.94
2022-11-17T21:31:55.092Z,7.95
2022-11-17T21:34:48.547Z,7.93
2022-11-17T21:37:37.449Z,7.97
2022-11-17T21:40:25.160Z,7.85
2022-11-17T21:43:12.956Z,7.62
2022-11-17T21:46:05.153Z,7.85
2022-11-17T21:48:53.952Z,7.84
2022-11-17T21:51:41.726Z,7.90
2022-11-17T21:54:29.296Z,7.85
2022-11-17T21:57:16.993Z,7.90
2022-11-17T22:00:06.085Z,7.81
2022-11-17T22:02:53.762Z,7.79
2022-11-17T22:05:41.702Z,7.73
2022-11-17T22:08:29.426Z,7.64
2022-11-17T22:11:35.699Z,7.57
2022-11-17T22:14:23.948Z,7.51
2022-11-17T22:17:11.635Z,7.43
2022-11-17T22:19:59.187Z,7.40
2022-11-17T22:22:47.897Z,7.30
2022-11-17T22:25:45.066Z,7.37
2022-11-17T22:28:33.146Z,7.54
2022-11-17T22:31:21.818Z,7.43
2022-11-17T22:34:09.539Z,7.38
2022-11-17T22:36:57.218Z,7.31
2022-11-17T22:39:45.846Z,7.27
2022-11-17T22:42:33.528Z,7.28
2022-11-17T22:45:21.303Z,7.04
2022-11-17T22:48:09.366Z,7.28
2022-11-17T22:51:00.625Z,7.20
2022-11-17T22:53:51.459Z,7.19
2022-11-17T22:56:39.515Z,7.09
2022-11-17T22:59:28.904Z,7.24
2022-11-17T23:02:16.603Z,7.20
2022-11-17T23:05:04.502Z,7.10
2022-11-17T23:07:52.173Z,7.07
2022-11-17T23:10:39.818Z,6.95
2022-11-17T23:13:27.819Z,6.99
2022-11-17T23:16:16.086Z,6.94
2022-11-17T23:19:05.053Z,6.87
2022-11-17T23:21:52.741Z,6.70
2022-11-17T23:24:40.405Z,6.79
2022-11-17T23:27:28.268Z,6.74
2022-11-17T23:30:16.364Z,6.80
2022-11-17T23:33:04.114Z,6.68
2022-11-17T23:35:56.384Z,6.67
2022-11-17T23:38:44.527Z,6.67
2022-11-17T23:41:32.257Z,6.58
2022-11-17T23:44:19.996Z,6.65
2022-11-17T23:47:07.717Z,6.65
2022-11-17T23:49:55.409Z,6.60
2022-11-17T23:52:43.096Z,6.72
2022-11-17T23:55:30.775Z,6.67
2022-11-17T23:58:18.385Z,6.75
